Uxbridge, Canada
Current Conditions -  °F | °C
As of 11:00 AM on Friday 19 Dec 2014 (Local Time) from CYKZ Reporting Station
Broken Clouds Broken Clouds  
Wind Chill: 17°   Ceiling: 5000
Heat Index: 27°   Visibility: 15mi
Dew Point: 18°   Wind: 9mph
Humidity: 69%   Direction: 320°NW
Pressure: 30.19"   Gusts: NA
Location:  44.1°N, 79.12°W
Report Text: CYKZ 191600Z 32008KT 15SM FEW015 BKN050 M03/M08 A3019 RMKSF1SC7 SF TR SLP234
Loading
Personal Weather Stations






























Interactive Weather Map New forecast layout! Learn more

10-Day Weather Forecast

Advertisements
Track Severe Weather on mobile